sensor_id;sensor_type;location;lat;lon;timestamp;P1;durP1;ratioP1;P2;durP2;ratioP2
22665;SDS011;11499;49.486;11.104;2023-04-23T00:00:23;3.30;;;2.90;;
22665;SDS011;11499;49.486;11.104;2023-04-23T00:02:51;6.70;;;2.93;;
22665;SDS011;11499;49.486;11.104;2023-04-23T00:05:18;2.90;;;2.50;;
22665;SDS011;11499;49.486;11.104;2023-04-23T00:07:44;4.07;;;2.80;;
22665;SDS011;11499;49.486;11.104;2023-04-23T00:10:10;4.60;;;2.77;;
22665;SDS011;11499;49.486;11.104;2023-04-23T00:12:36;2.80;;;2.50;;
22665;SDS011;11499;49.486;11.104;2023-04-23T00:15:02;3.87;;;3.03;;
22665;SDS011;11499;49.486;11.104;2023-04-23T00:17:29;3.60;;;2.97;;
22665;SDS011;11499;49.486;11.104;2023-04-23T00:22:43;4.53;;;3.10;;
22665;SDS011;11499;49.486;11.104;2023-04-23T00:25:09;3.40;;;2.90;;
22665;SDS011;11499;49.486;11.104;2023-04-23T00:27:35;5.67;;;3.20;;
22665;SDS011;11499;49.486;11.104;2023-04-23T00:30:01;3.63;;;3.10;;
22665;SDS011;11499;49.486;11.104;2023-04-23T00:32:28;4.27;;;3.40;;
22665;SDS011;11499;49.486;11.104;2023-04-23T00:34:54;6.77;;;3.53;;
22665;SDS011;11499;49.486;11.104;2023-04-23T00:37:20;4.50;;;3.00;;
22665;SDS011;11499;49.486;11.104;2023-04-23T00:39:46;3.63;;;3.20;;
22665;SDS011;11499;49.486;11.104;2023-04-23T00:42:11;5.13;;;3.50;;
22665;SDS011;11499;49.486;11.104;2023-04-23T00:44:37;4.57;;;3.13;;
22665;SDS011;11499;49.486;11.104;2023-04-23T00:49:35;3.93;;;3.17;;
22665;SDS011;11499;49.486;11.104;2023-04-23T00:52:03;3.57;;;3.27;;
22665;SDS011;11499;49.486;11.104;2023-04-23T00:54:28;3.83;;;3.20;;
22665;SDS011;11499;49.486;11.104;2023-04-23T00:56:55;4.80;;;2.90;;
22665;SDS011;11499;49.486;11.104;2023-04-23T00:59:24;4.97;;;3.30;;
22665;SDS011;11499;49.486;11.104;2023-04-23T01:01:51;6.07;;;3.30;;
22665;SDS011;11499;49.486;11.104;2023-04-23T01:04:17;5.30;;;3.30;;
22665;SDS011;11499;49.486;11.104;2023-04-23T01:06:43;4.10;;;2.87;;
22665;SDS011;11499;49.486;11.104;2023-04-23T01:09:13;3.63;;;2.90;;
22665;SDS011;11499;49.486;11.104;2023-04-23T01:11:42;5.43;;;3.37;;
22665;SDS011;11499;49.486;11.104;2023-04-23T01:16:46;5.17;;;3.37;;
22665;SDS011;11499;49.486;11.104;2023-04-23T01:19:11;5.93;;;2.90;;
22665;SDS011;11499;49.486;11.104;2023-04-23T01:21:38;4.10;;;2.80;;
22665;SDS011;11499;49.486;11.104;2023-04-23T01:24:07;4.60;;;3.10;;
22665;SDS011;11499;49.486;11.104;2023-04-23T01:26:33;3.33;;;2.83;;
22665;SDS011;11499;49.486;11.104;2023-04-23T01:28:59;3.47;;;2.70;;
22665;SDS011;11499;49.486;11.104;2023-04-23T01:31:28;4.20;;;2.80;;
22665;SDS011;11499;49.486;11.104;2023-04-23T01:33:55;4.63;;;2.93;;
22665;SDS011;11499;49.486;11.104;2023-04-23T01:36:22;3.10;;;2.60;;
22665;SDS011;11499;49.486;11.104;2023-04-23T01:38:49;3.30;;;2.80;;
22665;SDS011;11499;49.486;11.104;2023-04-23T01:44:24;5.23;;;3.00;;
22665;SDS011;11499;49.486;11.104;2023-04-23T01:46:50;3.87;;;2.70;;
22665;SDS011;11499;49.486;11.104;2023-04-23T01:49:16;3.83;;;2.77;;
22665;SDS011;11499;49.486;11.104;2023-04-23T01:51:42;3.80;;;2.90;;
22665;SDS011;11499;49.486;11.104;2023-04-23T01:54:07;3.67;;;2.80;;
22665;SDS011;11499;49.486;11.104;2023-04-23T01:56:33;5.37;;;2.80;;
22665;SDS011;11499;49.486;11.104;2023-04-23T01:59:00;4.77;;;3.03;;
22665;SDS011;11499;49.486;11.104;2023-04-23T02:01:30;3.33;;;3.03;;
22665;SDS011;11499;49.486;11.104;2023-04-23T02:04:06;3.37;;;3.07;;
22665;SDS011;11499;49.486;11.104;2023-04-23T02:06:31;3.53;;;3.10;;
22665;SDS011;11499;49.486;11.104;2023-04-23T02:11:38;3.80;;;3.00;;
22665;SDS011;11499;49.486;11.104;2023-04-23T02:14:04;6.27;;;3.50;;
22665;SDS011;11499;49.486;11.104;2023-04-23T02:16:30;3.33;;;3.03;;
22665;SDS011;11499;49.486;11.104;2023-04-23T02:18:56;4.83;;;2.77;;
22665;SDS011;11499;49.486;11.104;2023-04-23T02:21:22;3.97;;;2.90;;
22665;SDS011;11499;49.486;11.104;2023-04-23T02:23:48;3.30;;;3.00;;
22665;SDS011;11499;49.486;11.104;2023-04-23T02:26:14;4.50;;;2.80;;
22665;SDS011;11499;49.486;11.104;2023-04-23T02:28:40;3.53;;;2.90;;
22665;SDS011;11499;49.486;11.104;2023-04-23T02:31:06;4.00;;;2.80;;
22665;SDS011;11499;49.486;11.104;2023-04-23T02:33:34;3.80;;;3.10;;
22665;SDS011;11499;49.486;11.104;2023-04-23T02:38:41;4.20;;;2.90;;
22665;SDS011;11499;49.486;11.104;2023-04-23T02:41:09;3.10;;;2.80;;
22665;SDS011;11499;49.486;11.104;2023-04-23T02:43:35;3.10;;;2.47;;
22665;SDS011;11499;49.486;11.104;2023-04-23T02:46:00;4.63;;;2.83;;
22665;SDS011;11499;49.486;11.104;2023-04-23T02:48:34;4.70;;;2.90;;
22665;SDS011;11499;49.486;11.104;2023-04-23T02:51:00;3.10;;;2.60;;
22665;SDS011;11499;49.486;11.104;2023-04-23T02:53:27;3.80;;;2.70;;
22665;SDS011;11499;49.486;11.104;2023-04-23T02:55:52;6.57;;;2.93;;
22665;SDS011;11499;49.486;11.104;2023-04-23T02:58:18;3.80;;;3.20;;
22665;SDS011;11499;49.486;11.104;2023-04-23T03:00:43;3.63;;;3.27;;
22665;SDS011;11499;49.486;11.104;2023-04-23T03:06:12;4.80;;;3.03;;
22665;SDS011;11499;49.486;11.104;2023-04-23T03:08:38;4.07;;;3.20;;
22665;SDS011;11499;49.486;11.104;2023-04-23T03:11:03;3.20;;;2.90;;
22665;SDS011;11499;49.486;11.104;2023-04-23T03:13:29;4.40;;;2.60;;
22665;SDS011;11499;49.486;11.104;2023-04-23T03:15:55;3.67;;;3.20;;
22665;SDS011;11499;49.486;11.104;2023-04-23T03:18:20;10.63;;;3.10;;
22665;SDS011;11499;49.486;11.104;2023-04-23T03:20:46;6.00;;;3.17;;
22665;SDS011;11499;49.486;11.104;2023-04-23T03:23:12;7.60;;;3.30;;
22665;SDS011;11499;49.486;11.104;2023-04-23T03:25:37;5.17;;;3.43;;
22665;SDS011;11499;49.486;11.104;2023-04-23T03:28:03;3.70;;;3.10;;
22665;SDS011;11499;49.486;11.104;2023-04-23T03:33:13;3.43;;;3.10;;
22665;SDS011;11499;49.486;11.104;2023-04-23T03:35:38;4.07;;;3.17;;
22665;SDS011;11499;49.486;11.104;2023-04-23T03:38:04;3.20;;;2.90;;
22665;SDS011;11499;49.486;11.104;2023-04-23T03:40:29;3.50;;;2.83;;
22665;SDS011;11499;49.486;11.104;2023-04-23T03:42:55;5.40;;;3.27;;
22665;SDS011;11499;49.486;11.104;2023-04-23T03:45:22;3.67;;;2.93;;
22665;SDS011;11499;49.486;11.104;2023-04-23T03:47:47;3.90;;;3.30;;
22665;SDS011;11499;49.486;11.104;2023-04-23T03:50:13;4.47;;;3.13;;
22665;SDS011;11499;49.486;11.104;2023-04-23T03:52:38;3.93;;;3.27;;
22665;SDS011;11499;49.486;11.104;2023-04-23T03:55:04;4.27;;;3.63;;
22665;SDS011;11499;49.486;11.104;2023-04-23T04:00:19;4.40;;;3.40;;
22665;SDS011;11499;49.486;11.104;2023-04-23T04:02:45;5.00;;;3.57;;
22665;SDS011;11499;49.486;11.104;2023-04-23T04:05:11;4.07;;;3.40;;
22665;SDS011;11499;49.486;11.104;2023-04-23T04:07:36;3.87;;;3.40;;
22665;SDS011;11499;49.486;11.104;2023-04-23T04:10:03;5.70;;;3.83;;
22665;SDS011;11499;49.486;11.104;2023-04-23T04:12:29;4.00;;;3.53;;
22665;SDS011;11499;49.486;11.104;2023-04-23T04:14:55;5.43;;;4.10;;
22665;SDS011;11499;49.486;11.104;2023-04-23T04:17:20;4.57;;;4.17;;
22665;SDS011;11499;49.486;11.104;2023-04-23T04:19:46;5.23;;;4.03;;
22665;SDS011;11499;49.486;11.104;2023-04-23T04:22:12;4.70;;;3.60;;
22665;SDS011;11499;49.486;11.104;2023-04-23T04:27:47;5.37;;;3.87;;
22665;SDS011;11499;49.486;11.104;2023-04-23T04:30:13;4.53;;;3.80;;
22665;SDS011;11499;49.486;11.104;2023-04-23T04:32:39;4.40;;;3.73;;
22665;SDS011;11499;49.486;11.104;2023-04-23T04:35:06;4.30;;;3.90;;
22665;SDS011;11499;49.486;11.104;2023-04-23T04:37:33;4.67;;;3.60;;
22665;SDS011;11499;49.486;11.104;2023-04-23T04:39:59;6.23;;;3.57;;
22665;SDS011;11499;49.486;11.104;2023-04-23T04:42:25;4.20;;;3.80;;
22665;SDS011;11499;49.486;11.104;2023-04-23T04:44:51;4.90;;;3.23;;
22665;SDS011;11499;49.486;11.104;2023-04-23T04:47:16;3.77;;;3.30;;
22665;SDS011;11499;49.486;11.104;2023-04-23T04:49:42;4.20;;;3.80;;
22665;SDS011;11499;49.486;11.104;2023-04-23T04:55:07;3.67;;;3.37;;
22665;SDS011;11499;49.486;11.104;2023-04-23T04:57:32;3.03;;;2.77;;
22665;SDS011;11499;49.486;11.104;2023-04-23T05:00:00;5.50;;;3.73;;
22665;SDS011;11499;49.486;11.104;2023-04-23T05:02:27;3.50;;;3.20;;
22665;SDS011;11499;49.486;11.104;2023-04-23T05:04:52;3.77;;;3.40;;
22665;SDS011;11499;49.486;11.104;2023-04-23T05:07:18;3.67;;;3.37;;
22665;SDS011;11499;49.486;11.104;2023-04-23T05:09:43;4.20;;;3.80;;
22665;SDS011;11499;49.486;11.104;2023-04-23T05:12:09;5.33;;;3.97;;
22665;SDS011;11499;49.486;11.104;2023-04-23T05:14:34;4.87;;;4.10;;
22665;SDS011;11499;49.486;11.104;2023-04-23T05:17:00;4.13;;;3.80;;
22665;SDS011;11499;49.486;11.104;2023-04-23T05:22:08;4.10;;;3.73;;
22665;SDS011;11499;49.486;11.104;2023-04-23T05:24:33;4.37;;;3.77;;
22665;SDS011;11499;49.486;11.104;2023-04-23T05:26:59;4.20;;;3.60;;
22665;SDS011;11499;49.486;11.104;2023-04-23T05:29:25;4.30;;;3.77;;
22665;SDS011;11499;49.486;11.104;2023-04-23T05:31:50;5.07;;;3.63;;
22665;SDS011;11499;49.486;11.104;2023-04-23T05:34:16;3.97;;;3.40;;
22665;SDS011;11499;49.486;11.104;2023-04-23T05:36:41;4.87;;;3.60;;
22665;SDS011;11499;49.486;11.104;2023-04-23T05:39:07;4.20;;;3.40;;
22665;SDS011;11499;49.486;11.104;2023-04-23T05:41:33;3.77;;;3.13;;
22665;SDS011;11499;49.486;11.104;2023-04-23T05:43:58;4.00;;;3.20;;
22665;SDS011;11499;49.486;11.104;2023-04-23T05:48:53;3.70;;;3.00;;
22665;SDS011;11499;49.486;11.104;2023-04-23T05:51:19;3.03;;;2.83;;
22665;SDS011;11499;49.486;11.104;2023-04-23T05:53:44;3.27;;;2.90;;
22665;SDS011;11499;49.486;11.104;2023-04-23T05:56:10;3.40;;;2.90;;
22665;SDS011;11499;49.486;11.104;2023-04-23T05:58:35;3.13;;;2.83;;
22665;SDS011;11499;49.486;11.104;2023-04-23T06:01:02;3.00;;;2.80;;
22665;SDS011;11499;49.486;11.104;2023-04-23T06:03:28;3.40;;;3.00;;
22665;SDS011;11499;49.486;11.104;2023-04-23T06:05:54;3.40;;;2.73;;
22665;SDS011;11499;49.486;11.104;2023-04-23T06:08:20;3.10;;;2.80;;
22665;SDS011;11499;49.486;11.104;2023-04-23T06:13:38;3.47;;;2.97;;
22665;SDS011;11499;49.486;11.104;2023-04-23T06:16:07;2.83;;;2.63;;
22665;SDS011;11499;49.486;11.104;2023-04-23T06:18:33;3.43;;;2.80;;
22665;SDS011;11499;49.486;11.104;2023-04-23T06:20:59;3.93;;;3.47;;
22665;SDS011;11499;49.486;11.104;2023-04-23T06:23:29;3.63;;;3.30;;
22665;SDS011;11499;49.486;11.104;2023-04-23T06:25:54;3.30;;;3.00;;
22665;SDS011;11499;49.486;11.104;2023-04-23T06:28:20;3.10;;;2.83;;
22665;SDS011;11499;49.486;11.104;2023-04-23T06:30:46;3.97;;;3.60;;
22665;SDS011;11499;49.486;11.104;2023-04-23T06:33:12;4.03;;;3.20;;
22665;SDS011;11499;49.486;11.104;2023-04-23T06:38:54;3.33;;;3.00;;
22665;SDS011;11499;49.486;11.104;2023-04-23T06:41:20;4.17;;;3.00;;
22665;SDS011;11499;49.486;11.104;2023-04-23T06:43:45;4.70;;;3.13;;
22665;SDS011;11499;49.486;11.104;2023-04-23T06:46:12;3.33;;;3.03;;
22665;SDS011;11499;49.486;11.104;2023-04-23T06:48:38;3.27;;;3.00;;
22665;SDS011;11499;49.486;11.104;2023-04-23T06:51:03;3.63;;;3.33;;
22665;SDS011;11499;49.486;11.104;2023-04-23T06:53:30;3.33;;;2.87;;
22665;SDS011;11499;49.486;11.104;2023-04-23T06:55:55;3.47;;;3.17;;
22665;SDS011;11499;49.486;11.104;2023-04-23T06:58:21;3.17;;;2.67;;
22665;SDS011;11499;49.486;11.104;2023-04-23T07:02:09;3.20;;;2.90;;
22665;SDS011;11499;49.486;11.104;2023-04-23T07:04:34;4.40;;;3.10;;
22665;SDS011;11499;49.486;11.104;2023-04-23T07:07:00;3.20;;;2.90;;
22665;SDS011;11499;49.486;11.104;2023-04-23T07:09:26;3.20;;;2.90;;
22665;SDS011;11499;49.486;11.104;2023-04-23T07:11:52;3.23;;;2.93;;
22665;SDS011;11499;49.486;11.104;2023-04-23T07:14:18;2.83;;;2.50;;
22665;SDS011;11499;49.486;11.104;2023-04-23T07:16:43;3.00;;;2.60;;
22665;SDS011;11499;49.486;11.104;2023-04-23T07:19:08;3.10;;;2.80;;
22665;SDS011;11499;49.486;11.104;2023-04-23T07:21:34;3.40;;;2.87;;
22665;SDS011;11499;49.486;11.104;2023-04-23T07:24:00;3.47;;;2.90;;
22665;SDS011;11499;49.486;11.104;2023-04-23T07:29:20;4.80;;;2.67;;
22665;SDS011;11499;49.486;11.104;2023-04-23T07:31:46;2.57;;;2.37;;
22665;SDS011;11499;49.486;11.104;2023-04-23T07:34:12;2.60;;;2.40;;
22665;SDS011;11499;49.486;11.104;2023-04-23T07:36:38;3.30;;;2.47;;
22665;SDS011;11499;49.486;11.104;2023-04-23T07:39:03;2.20;;;2.00;;
22665;SDS011;11499;49.486;11.104;2023-04-23T07:41:29;2.53;;;2.10;;
22665;SDS011;11499;49.486;11.104;2023-04-23T07:43:55;2.60;;;2.10;;
22665;SDS011;11499;49.486;11.104;2023-04-23T07:46:21;2.57;;;2.37;;
22665;SDS011;11499;49.486;11.104;2023-04-23T07:48:46;4.57;;;2.60;;
22665;SDS011;11499;49.486;11.104;2023-04-23T07:51:12;2.97;;;2.23;;
22665;SDS011;11499;49.486;11.104;2023-04-23T07:56:43;2.40;;;2.00;;
22665;SDS011;11499;49.486;11.104;2023-04-23T07:59:08;2.75;;;2.30;;
22665;SDS011;11499;49.486;11.104;2023-04-23T08:01:34;3.00;;;2.80;;
22665;SDS011;11499;49.486;11.104;2023-04-23T08:04:00;3.15;;;2.80;;
22665;SDS011;11499;49.486;11.104;2023-04-23T08:06:26;4.18;;;3.33;;
22665;SDS011;11499;49.486;11.104;2023-04-23T08:08:55;6.15;;;3.78;;
22665;SDS011;11499;49.486;11.104;2023-04-23T08:11:21;4.22;;;3.40;;
22665;SDS011;11499;49.486;11.104;2023-04-23T08:13:47;4.03;;;3.13;;
22665;SDS011;11499;49.486;11.104;2023-04-23T08:16:13;5.45;;;3.55;;
22665;SDS011;11499;49.486;11.104;2023-04-23T08:18:38;4.35;;;3.40;;
22665;SDS011;11499;49.486;11.104;2023-04-23T08:23:16;4.97;;;3.80;;
22665;SDS011;11499;49.486;11.104;2023-04-23T08:25:42;4.35;;;3.97;;
22665;SDS011;11499;49.486;11.104;2023-04-23T08:28:07;5.00;;;3.63;;
22665;SDS011;11499;49.486;11.104;2023-04-23T08:30:33;5.35;;;3.45;;
22665;SDS011;11499;49.486;11.104;2023-04-23T08:32:58;3.88;;;3.50;;
22665;SDS011;11499;49.486;11.104;2023-04-23T08:35:24;4.75;;;3.60;;
22665;SDS011;11499;49.486;11.104;2023-04-23T08:37:49;3.88;;;3.45;;
22665;SDS011;11499;49.486;11.104;2023-04-23T08:40:15;4.32;;;3.92;;
22665;SDS011;11499;49.486;11.104;2023-04-23T08:48:00;2.73;;;2.53;;
22665;SDS011;11499;49.486;11.104;2023-04-23T08:50:26;2.40;;;2.20;;
22665;SDS011;11499;49.486;11.104;2023-04-23T08:52:54;3.10;;;2.10;;
22665;SDS011;11499;49.486;11.104;2023-04-23T08:55:21;3.17;;;1.93;;
22665;SDS011;11499;49.486;11.104;2023-04-23T08:57:48;1.97;;;1.77;;
22665;SDS011;11499;49.486;11.104;2023-04-23T09:00:14;2.67;;;1.83;;
22665;SDS011;11499;49.486;11.104;2023-04-23T09:02:43;3.07;;;2.10;;
22665;SDS011;11499;49.486;11.104;2023-04-23T09:05:10;1.97;;;1.70;;
22665;SDS011;11499;49.486;11.104;2023-04-23T09:07:36;2.57;;;1.90;;
22665;SDS011;11499;49.486;11.104;2023-04-23T09:10:03;1.80;;;1.60;;
22665;SDS011;11499;49.486;11.104;2023-04-23T09:15:46;1.50;;;1.40;;
22665;SDS011;11499;49.486;11.104;2023-04-23T09:18:11;1.70;;;1.60;;
22665;SDS011;11499;49.486;11.104;2023-04-23T09:20:37;1.70;;;1.60;;
22665;SDS011;11499;49.486;11.104;2023-04-23T09:23:05;1.83;;;1.43;;
22665;SDS011;11499;49.486;11.104;2023-04-23T09:25:32;1.37;;;1.27;;
22665;SDS011;11499;49.486;11.104;2023-04-23T09:27:58;1.80;;;1.47;;
22665;SDS011;11499;49.486;11.104;2023-04-23T09:30:25;1.85;;;1.05;;
22665;SDS011;11499;49.486;11.104;2023-04-23T09:32:51;1.20;;;1.10;;
22665;SDS011;11499;49.486;11.104;2023-04-23T09:35:17;1.80;;;1.20;;
22665;SDS011;11499;49.486;11.104;2023-04-23T09:37:49;1.10;;;1.00;;
22665;SDS011;11499;49.486;11.104;2023-04-23T09:42:50;1.20;;;1.10;;
22665;SDS011;11499;49.486;11.104;2023-04-23T09:45:18;3.20;;;1.40;;
22665;SDS011;11499;49.486;11.104;2023-04-23T09:47:47;1.50;;;1.40;;
22665;SDS011;11499;49.486;11.104;2023-04-23T09:50:18;1.42;;;1.30;;
22665;SDS011;11499;49.486;11.104;2023-04-23T09:52:55;1.73;;;1.35;;
22665;SDS011;11499;49.486;11.104;2023-04-23T09:55:30;2.28;;;1.27;;
22665;SDS011;11499;49.486;11.104;2023-04-23T09:58:02;1.40;;;1.20;;
22665;SDS011;11499;49.486;11.104;2023-04-23T10:00:33;1.48;;;1.30;;
22665;SDS011;11499;49.486;11.104;2023-04-23T10:03:00;1.60;;;1.50;;
22665;SDS011;11499;49.486;11.104;2023-04-23T10:05:26;1.77;;;1.60;;
22665;SDS011;11499;49.486;11.104;2023-04-23T10:09:35;2.10;;;1.60;;
22665;SDS011;11499;49.486;11.104;2023-04-23T10:12:01;2.10;;;1.48;;
22665;SDS011;11499;49.486;11.104;2023-04-23T10:14:27;1.73;;;1.52;;
22665;SDS011;11499;49.486;11.104;2023-04-23T10:16:58;2.72;;;1.75;;
22665;SDS011;11499;49.486;11.104;2023-04-23T10:19:24;1.67;;;1.55;;
22665;SDS011;11499;49.486;11.104;2023-04-23T10:21:55;1.98;;;1.83;;
22665;SDS011;11499;49.486;11.104;2023-04-23T10:24:28;2.10;;;1.63;;
22665;SDS011;11499;49.486;11.104;2023-04-23T10:26:57;2.03;;;1.80;;
22665;SDS011;11499;49.486;11.104;2023-04-23T10:29:29;4.63;;;1.95;;
22665;SDS011;11499;49.486;11.104;2023-04-23T10:31:59;2.60;;;1.90;;
22665;SDS011;11499;49.486;11.104;2023-04-23T10:37:04;1.92;;;1.70;;
22665;SDS011;11499;49.486;11.104;2023-04-23T10:39:32;2.15;;;1.70;;
22665;SDS011;11499;49.486;11.104;2023-04-23T10:41:59;2.28;;;1.80;;
22665;SDS011;11499;49.486;11.104;2023-04-23T10:44:33;2.03;;;1.60;;
22665;SDS011;11499;49.486;11.104;2023-04-23T10:47:01;2.00;;;1.75;;
22665;SDS011;11499;49.486;11.104;2023-04-23T10:49:28;1.65;;;1.55;;
22665;SDS011;11499;49.486;11.104;2023-04-23T10:52:02;1.73;;;1.48;;
22665;SDS011;11499;49.486;11.104;2023-04-23T10:54:33;2.45;;;1.63;;
22665;SDS011;11499;49.486;11.104;2023-04-23T10:57:00;2.30;;;1.63;;
22665;SDS011;11499;49.486;11.104;2023-04-23T11:02:09;1.70;;;1.60;;
22665;SDS011;11499;49.486;11.104;2023-04-23T11:04:40;2.60;;;1.60;;
22665;SDS011;11499;49.486;11.104;2023-04-23T11:07:09;2.78;;;1.60;;
22665;SDS011;11499;49.486;11.104;2023-04-23T11:12:24;2.22;;;1.50;;
22665;SDS011;11499;49.486;11.104;2023-04-23T11:14:57;2.17;;;1.50;;
22665;SDS011;11499;49.486;11.104;2023-04-23T11:20:12;1.90;;;1.45;;
22665;SDS011;11499;49.486;11.104;2023-04-23T11:22:40;1.63;;;1.40;;
22665;SDS011;11499;49.486;11.104;2023-04-23T11:27:56;2.03;;;1.40;;
22665;SDS011;11499;49.486;11.104;2023-04-23T11:30:29;1.80;;;1.48;;
22665;SDS011;11499;49.486;11.104;2023-04-23T11:32:56;2.80;;;1.58;;
22665;SDS011;11499;49.486;11.104;2023-04-23T11:35:24;1.50;;;1.40;;
22665;SDS011;11499;49.486;11.104;2023-04-23T11:37:54;1.88;;;1.35;;
22665;SDS011;11499;49.486;11.104;2023-04-23T11:40:21;1.58;;;1.30;;
22665;SDS011;11499;49.486;11.104;2023-04-23T11:42:51;1.45;;;1.35;;
22665;SDS011;11499;49.486;11.104;2023-04-23T11:45:19;2.63;;;1.75;;
22665;SDS011;11499;49.486;11.104;2023-04-23T11:47:48;1.40;;;1.30;;
22665;SDS011;11499;49.486;11.104;2023-04-23T11:50:19;1.35;;;1.20;;
22665;SDS011;11499;49.486;11.104;2023-04-23T11:55:27;1.45;;;1.17;;
22665;SDS011;11499;49.486;11.104;2023-04-23T11:57:53;1.23;;;1.05;;
22665;SDS011;11499;49.486;11.104;2023-04-23T12:00:22;1.30;;;1.20;;
22665;SDS011;11499;49.486;11.104;2023-04-23T12:02:54;1.88;;;1.20;;
22665;SDS011;11499;49.486;11.104;2023-04-23T12:05:20;1.50;;;1.20;;
22665;SDS011;11499;49.486;11.104;2023-04-23T12:07:50;1.70;;;1.13;;
22665;SDS011;11499;49.486;11.104;2023-04-23T12:10:17;1.38;;;1.25;;
22665;SDS011;11499;49.486;11.104;2023-04-23T12:12:43;1.58;;;1.20;;
22665;SDS011;11499;49.486;11.104;2023-04-23T12:15:08;1.10;;;1.00;;
22665;SDS011;11499;49.486;11.104;2023-04-23T12:17:34;1.75;;;1.23;;
22665;SDS011;11499;49.486;11.104;2023-04-23T12:22:38;1.88;;;1.30;;
22665;SDS011;11499;49.486;11.104;2023-04-23T12:25:04;2.08;;;1.20;;
22665;SDS011;11499;49.486;11.104;2023-04-23T12:27:37;1.45;;;1.20;;
22665;SDS011;11499;49.486;11.104;2023-04-23T12:30:05;1.50;;;1.27;;
22665;SDS011;11499;49.486;11.104;2023-04-23T12:32:34;1.67;;;1.10;;
22665;SDS011;11499;49.486;11.104;2023-04-23T12:35:01;1.58;;;1.30;;
22665;SDS011;11499;49.486;11.104;2023-04-23T12:37:30;1.13;;;1.02;;
22665;SDS011;11499;49.486;11.104;2023-04-23T12:40:00;2.95;;;1.20;;
22665;SDS011;11499;49.486;11.104;2023-04-23T12:42:26;1.73;;;1.15;;
22665;SDS011;11499;49.486;11.104;2023-04-23T12:44:52;2.05;;;1.23;;
22665;SDS011;11499;49.486;11.104;2023-04-23T12:50:00;1.60;;;1.00;;
22665;SDS011;11499;49.486;11.104;2023-04-23T12:52:28;1.52;;;1.02;;
22665;SDS011;11499;49.486;11.104;2023-04-23T12:54:53;1.33;;;1.23;;
22665;SDS011;11499;49.486;11.104;2023-04-23T12:57:21;1.20;;;1.10;;
22665;SDS011;11499;49.486;11.104;2023-04-23T12:59:47;1.10;;;0.93;;
22665;SDS011;11499;49.486;11.104;2023-04-23T13:02:12;1.25;;;1.00;;
22665;SDS011;11499;49.486;11.104;2023-04-23T13:04:38;1.98;;;1.00;;
22665;SDS011;11499;49.486;11.104;2023-04-23T13:07:04;1.50;;;1.05;;
22665;SDS011;11499;49.486;11.104;2023-04-23T13:09:29;1.35;;;0.98;;
22665;SDS011;11499;49.486;11.104;2023-04-23T13:11:55;1.15;;;0.90;;
22665;SDS011;11499;49.486;11.104;2023-04-23T13:17:09;1.92;;;0.95;;
22665;SDS011;11499;49.486;11.104;2023-04-23T13:19:34;2.10;;;0.90;;
22665;SDS011;11499;49.486;11.104;2023-04-23T13:22:01;0.95;;;0.90;;
22665;SDS011;11499;49.486;11.104;2023-04-23T13:24:28;1.33;;;0.95;;
22665;SDS011;11499;49.486;11.104;2023-04-23T13:26:54;1.35;;;1.08;;
22665;SDS011;11499;49.486;11.104;2023-04-23T13:29:20;1.48;;;1.23;;
22665;SDS011;11499;49.486;11.104;2023-04-23T13:31:47;1.25;;;1.10;;
22665;SDS011;11499;49.486;11.104;2023-04-23T13:34:12;1.40;;;1.20;;
22665;SDS011;11499;49.486;11.104;2023-04-23T13:36:38;1.23;;;1.13;;
22665;SDS011;11499;49.486;11.104;2023-04-23T13:39:06;1.25;;;0.98;;
22665;SDS011;11499;49.486;11.104;2023-04-23T13:41:33;1.25;;;0.98;;
22665;SDS011;11499;49.486;11.104;2023-04-23T13:43:59;1.13;;;1.00;;
22665;SDS011;11499;49.486;11.104;2023-04-23T13:48:37;1.33;;;0.93;;
22665;SDS011;11499;49.486;11.104;2023-04-23T13:51:02;1.02;;;0.80;;
22665;SDS011;11499;49.486;11.104;2023-04-23T13:53:28;1.02;;;0.93;;
22665;SDS011;11499;49.486;11.104;2023-04-23T13:55:54;1.60;;;1.10;;
22665;SDS011;11499;49.486;11.104;2023-04-23T13:58:20;1.40;;;1.15;;
22665;SDS011;11499;49.486;11.104;2023-04-23T14:00:47;1.45;;;0.98;;
22665;SDS011;11499;49.486;11.104;2023-04-23T14:03:12;1.63;;;1.20;;
22665;SDS011;11499;49.486;11.104;2023-04-23T14:05:38;1.48;;;1.10;;
22665;SDS011;11499;49.486;11.104;2023-04-23T14:08:03;1.48;;;1.10;;
22665;SDS011;11499;49.486;11.104;2023-04-23T14:10:29;1.42;;;1.05;;
22665;SDS011;11499;49.486;11.104;2023-04-23T14:15:29;1.10;;;1.00;;
22665;SDS011;11499;49.486;11.104;2023-04-23T14:17:55;1.48;;;1.08;;
22665;SDS011;11499;49.486;11.104;2023-04-23T14:20:20;1.25;;;0.90;;
22665;SDS011;11499;49.486;11.104;2023-04-23T14:22:47;1.15;;;1.05;;
22665;SDS011;11499;49.486;11.104;2023-04-23T14:25:21;1.50;;;1.20;;
22665;SDS011;11499;49.486;11.104;2023-04-23T14:27:58;1.50;;;1.40;;
22665;SDS011;11499;49.486;11.104;2023-04-23T14:30:27;1.60;;;1.27;;
22665;SDS011;11499;49.486;11.104;2023-04-23T14:32:53;1.42;;;0.90;;
22665;SDS011;11499;49.486;11.104;2023-04-23T14:35:20;3.13;;;1.27;;
22665;SDS011;11499;49.486;11.104;2023-04-23T14:40:48;2.03;;;1.38;;
22665;SDS011;11499;49.486;11.104;2023-04-23T14:43:13;2.15;;;1.10;;
22665;SDS011;11499;49.486;11.104;2023-04-23T14:45:39;1.10;;;1.00;;
22665;SDS011;11499;49.486;11.104;2023-04-23T14:48:05;1.85;;;1.10;;
22665;SDS011;11499;49.486;11.104;2023-04-23T14:50:30;2.17;;;1.50;;
22665;SDS011;11499;49.486;11.104;2023-04-23T14:52:56;2.00;;;1.50;;
22665;SDS011;11499;49.486;11.104;2023-04-23T14:55:22;1.33;;;0.90;;
22665;SDS011;11499;49.486;11.104;2023-04-23T14:57:48;2.40;;;1.10;;
22665;SDS011;11499;49.486;11.104;2023-04-23T15:00:14;3.08;;;1.17;;
22665;SDS011;11499;49.486;11.104;2023-04-23T15:02:41;2.30;;;1.17;;
22665;SDS011;11499;49.486;11.104;2023-04-23T15:08:00;1.23;;;1.00;;
22665;SDS011;11499;49.486;11.104;2023-04-23T15:10:26;1.92;;;1.00;;
22665;SDS011;11499;49.486;11.104;2023-04-23T15:13:00;1.25;;;1.00;;
22665;SDS011;11499;49.486;11.104;2023-04-23T15:15:37;0.85;;;0.65;;
22665;SDS011;11499;49.486;11.104;2023-04-23T15:18:06;1.65;;;1.25;;
22665;SDS011;11499;49.486;11.104;2023-04-23T15:20:32;1.52;;;1.13;;
22665;SDS011;11499;49.486;11.104;2023-04-23T15:22:57;2.10;;;1.17;;
22665;SDS011;11499;49.486;11.104;2023-04-23T15:25:23;1.63;;;0.90;;
22665;SDS011;11499;49.486;11.104;2023-04-23T15:27:49;1.10;;;1.00;;
22665;SDS011;11499;49.486;11.104;2023-04-23T15:30:21;1.23;;;1.10;;
22665;SDS011;11499;49.486;11.104;2023-04-23T15:35:35;1.27;;;1.10;;
22665;SDS011;11499;49.486;11.104;2023-04-23T15:38:01;2.00;;;1.08;;
22665;SDS011;11499;49.486;11.104;2023-04-23T15:40:27;1.38;;;1.02;;
22665;SDS011;11499;49.486;11.104;2023-04-23T15:42:53;2.13;;;1.00;;
22665;SDS011;11499;49.486;11.104;2023-04-23T15:45:19;2.13;;;0.90;;
22665;SDS011;11499;49.486;11.104;2023-04-23T15:47:44;1.23;;;0.90;;
22665;SDS011;11499;49.486;11.104;2023-04-23T15:50:10;1.10;;;1.00;;
22665;SDS011;11499;49.486;11.104;2023-04-23T15:52:37;2.40;;;1.20;;
22665;SDS011;11499;49.486;11.104;2023-04-23T15:55:04;2.03;;;1.23;;
22665;SDS011;11499;49.486;11.104;2023-04-23T15:57:30;1.40;;;1.15;;
22665;SDS011;11499;49.486;11.104;2023-04-23T16:02:45;1.70;;;1.30;;
22665;SDS011;11499;49.486;11.104;2023-04-23T16:05:11;1.60;;;1.10;;
22665;SDS011;11499;49.486;11.104;2023-04-23T16:07:38;1.10;;;1.00;;
22665;SDS011;11499;49.486;11.104;2023-04-23T16:10:04;7.10;;;1.13;;
22665;SDS011;11499;49.486;11.104;2023-04-23T16:12:30;1.50;;;1.33;;
22665;SDS011;11499;49.486;11.104;2023-04-23T16:14:56;1.52;;;1.00;;